Airfield :
LOGIN :

Register | Disclaimer

   EN    FR    IT 

 










Legend :    VFR   Marginal VFR   IFR   Intensive IFR   Very Intensive IFR
Visi :
Ceiling :
>= 8 km
>= 3000ft
5 to 8 km
1000 to 3000 ft
1500m to 5 km
500 to 1000 ft
800 to 1500m
200 to 500 ft
< 800m
< 200 ft
Symbols :   Thunderstorms  Fog  Heavy snow  Heavy precipitations  Wind > 20 kt
SIGMETs :     Misc.  Thunderstorms  Icing  Turbulence  Mountain Waves  Volcanic Ashes







- Airport Elevation : 197 ft
- IATA code : XOG
- Download approach charts


LFMO - Orange

CURRENT METAR :
  • 201500Z AUTO 35028KT CAVOK 27/05 Q1019 BECMG 35030G40KT

EXPIRED METARs :
  • 201430Z AUTO 35025KT CAVOK 27/05 Q1019 BECMG 35030G40KT
  • 201400Z AUTO 34026G38KT CAVOK 27/06 Q1019 NOSIG
  • 201330Z AUTO 34031KT CAVOK 26/05 Q1019 BECMG 35025G35KT
  • 201300Z AUTO 35027G39KT CAVOK 27/07 Q1019 NOSIG
  • 201230Z AUTO 34028KT CAVOK 26/06 Q1019 BECMG 35025G35KT

TAF TAF LFMO
Valid from the 20 at 15:00 until the 21 at 15:00 UTC


201400Z 2015/2115 35030G40KT CAVOK
BECMG 2100/2102 35015G25KT
BECMG 2107/2109 34015KT
No reported NOTAMs for that airfield.
1 SIGMET reported for the Marseille FIR (LFMM) :
 
Severe turbulence
LFMM SIGMET 4 VALID 201400/201800 LFPW
LFMM MARSEILLE FIR/UIR SEV TURB FCST WI N4300 E00415 - N4430 E00430 - N4430 E00500 - N4300 E00530 SFC/FL050 STNR NC=



MET'MAP, your aeronautical weather chart ! - Copyright ORBIFLY December 2007 - Disclaimer

ORBIFLY MET'MAP TEAM :

Programming & Development : Alexandra Zaïnal
Concept & Development : Baudouin d'Aumeries
Co-Development & Prog : Marc-Olivier Méhu
Technical & hardware support : Manuel Goepfert

Contact : metmap@orbifly.com




SOURCES & CREDITS :

   NOAA